sensor_id;sensor_type;location;lat;lon;timestamp;pressure;altitude;pressure_sealevel;temperature;humidity
78717;BME280;68045;50.042;14.432;2023-05-07T00:01:49;98547.69;;;12.15;65.57
78717;BME280;68045;50.042;14.432;2023-05-07T00:05:49;98546.38;;;12.29;65.72
78717;BME280;68045;50.042;14.432;2023-05-07T00:09:50;98546.94;;;12.31;65.44
78717;BME280;68045;50.042;14.432;2023-05-07T00:13:51;98543.84;;;12.34;65.08
78717;BME280;68045;50.042;14.432;2023-05-07T00:17:53;98547.31;;;12.34;65.37
78717;BME280;68045;50.042;14.432;2023-05-07T00:21:54;98556.72;;;12.42;64.57
78717;BME280;68045;50.042;14.432;2023-05-07T00:25:56;98540.50;;;12.38;64.73
78717;BME280;68045;50.042;14.432;2023-05-07T00:29:57;98540.25;;;12.40;65.20
78717;BME280;68045;50.042;14.432;2023-05-07T00:33:59;98541.16;;;12.46;64.69
78717;BME280;68045;50.042;14.432;2023-05-07T00:37:59;98551.06;;;12.50;64.46
78717;BME280;68045;50.042;14.432;2023-05-07T00:42:01;98551.44;;;12.42;65.65
78717;BME280;68045;50.042;14.432;2023-05-07T00:46:03;98542.75;;;12.47;64.49
78717;BME280;68045;50.042;14.432;2023-05-07T00:50:04;98551.56;;;12.35;64.74
78717;BME280;68045;50.042;14.432;2023-05-07T00:54:06;98544.84;;;12.45;64.21
78717;BME280;68045;50.042;14.432;2023-05-07T00:58:08;98543.28;;;12.60;63.99
78717;BME280;68045;50.042;14.432;2023-05-07T01:02:09;98553.28;;;12.70;64.19
78717;BME280;68045;50.042;14.432;2023-05-07T01:06:12;98565.50;;;12.71;63.75
78717;BME280;68045;50.042;14.432;2023-05-07T01:10:14;98558.31;;;12.83;63.09
78717;BME280;68045;50.042;14.432;2023-05-07T01:14:16;98556.06;;;12.92;62.63
78717;BME280;68045;50.042;14.432;2023-05-07T01:18:17;98559.19;;;12.89;63.27
78717;BME280;68045;50.042;14.432;2023-05-07T01:22:31;98555.34;;;12.97;62.54
78717;BME280;68045;50.042;14.432;2023-05-07T01:26:33;98569.41;;;12.97;62.90
78717;BME280;68045;50.042;14.432;2023-05-07T01:30:34;98560.75;;;13.02;62.13
78717;BME280;68045;50.042;14.432;2023-05-07T01:34:39;98566.66;;;12.92;61.74
78717;BME280;68045;50.042;14.432;2023-05-07T01:38:41;98570.59;;;12.89;62.76
78717;BME280;68045;50.042;14.432;2023-05-07T01:42:43;98563.78;;;12.93;62.25
78717;BME280;68045;50.042;14.432;2023-05-07T01:46:44;98560.31;;;12.93;62.87
78717;BME280;68045;50.042;14.432;2023-05-07T01:50:46;98564.94;;;12.98;62.54
78717;BME280;68045;50.042;14.432;2023-05-07T01:54:48;98559.38;;;12.99;62.30
78717;BME280;68045;50.042;14.432;2023-05-07T01:58:49;98563.59;;;13.12;61.96
78717;BME280;68045;50.042;14.432;2023-05-07T02:02:52;98566.84;;;13.02;62.52
78717;BME280;68045;50.042;14.432;2023-05-07T02:07:16;98564.94;;;12.98;62.17
78717;BME280;68045;50.042;14.432;2023-05-07T02:11:17;98568.19;;;12.88;61.45
78717;BME280;68045;50.042;14.432;2023-05-07T02:15:18;98560.72;;;12.85;61.28
78717;BME280;68045;50.042;14.432;2023-05-07T02:19:19;98568.75;;;12.90;61.08
78717;BME280;68045;50.042;14.432;2023-05-07T02:23:21;98567.28;;;12.82;61.30
78717;BME280;68045;50.042;14.432;2023-05-07T02:27:23;98570.75;;;12.83;61.33
78717;BME280;68045;50.042;14.432;2023-05-07T02:31:24;98563.25;;;12.80;60.87
78717;BME280;68045;50.042;14.432;2023-05-07T02:35:25;98572.25;;;12.79;60.86
78717;BME280;68045;50.042;14.432;2023-05-07T02:39:27;98571.59;;;12.72;61.65
78717;BME280;68045;50.042;14.432;2023-05-07T02:43:27;98571.91;;;12.75;61.01
78717;BME280;68045;50.042;14.432;2023-05-07T02:47:28;98573.75;;;12.75;61.10
78717;BME280;68045;50.042;14.432;2023-05-07T02:51:30;98568.00;;;12.78;61.17
78717;BME280;68045;50.042;14.432;2023-05-07T02:55:34;98570.97;;;12.81;60.75
78717;BME280;68045;50.042;14.432;2023-05-07T02:59:35;98573.41;;;12.83;60.91
78717;BME280;68045;50.042;14.432;2023-05-07T03:03:36;98565.22;;;12.84;60.53
78717;BME280;68045;50.042;14.432;2023-05-07T03:07:37;98573.72;;;12.86;60.59
78717;BME280;68045;50.042;14.432;2023-05-07T03:11:38;98575.00;;;12.84;60.34
78717;BME280;68045;50.042;14.432;2023-05-07T03:15:39;98577.41;;;12.85;60.43
78717;BME280;68045;50.042;14.432;2023-05-07T03:19:40;98574.75;;;12.85;60.27
78717;BME280;68045;50.042;14.432;2023-05-07T03:23:41;98573.41;;;12.83;61.05
78717;BME280;68045;50.042;14.432;2023-05-07T03:27:42;98568.69;;;12.73;60.59
78717;BME280;68045;50.042;14.432;2023-05-07T03:31:43;98573.53;;;12.76;61.45
78717;BME280;68045;50.042;14.432;2023-05-07T03:35:44;98577.00;;;12.77;61.20
78717;BME280;68045;50.042;14.432;2023-05-07T03:39:48;98578.97;;;12.70;60.57
78717;BME280;68045;50.042;14.432;2023-05-07T03:43:49;98584.66;;;12.61;61.05
78717;BME280;68045;50.042;14.432;2023-05-07T03:47:51;98582.22;;;12.60;61.67
78717;BME280;68045;50.042;14.432;2023-05-07T03:51:55;98580.38;;;12.60;61.94
78717;BME280;68045;50.042;14.432;2023-05-07T03:55:57;98577.63;;;12.55;61.33
78717;BME280;68045;50.042;14.432;2023-05-07T03:59:58;98576.69;;;12.61;60.74
78717;BME280;68045;50.042;14.432;2023-05-07T04:04:00;98568.22;;;12.48;62.02
78717;BME280;68045;50.042;14.432;2023-05-07T04:08:01;98574.56;;;12.35;62.73
78717;BME280;68045;50.042;14.432;2023-05-07T04:12:10;98568.16;;;12.19;63.76
78717;BME280;68045;50.042;14.432;2023-05-07T04:16:11;98580.44;;;12.25;63.22
78717;BME280;68045;50.042;14.432;2023-05-07T04:20:17;98584.16;;;12.13;64.40
78717;BME280;68045;50.042;14.432;2023-05-07T04:24:22;98596.22;;;12.08;64.65
78717;BME280;68045;50.042;14.432;2023-05-07T04:28:23;98606.47;;;11.93;64.82
78717;BME280;68045;50.042;14.432;2023-05-07T04:32:25;98596.94;;;11.80;65.31
78717;BME280;68045;50.042;14.432;2023-05-07T04:36:27;98607.28;;;11.94;64.59
78717;BME280;68045;50.042;14.432;2023-05-07T04:40:36;98612.59;;;12.05;63.79
78717;BME280;68045;50.042;14.432;2023-05-07T04:44:38;98619.56;;;12.23;63.24
78717;BME280;68045;50.042;14.432;2023-05-07T04:48:39;98615.19;;;12.29;63.21
78717;BME280;68045;50.042;14.432;2023-05-07T04:52:41;98614.28;;;12.35;62.16
78717;BME280;68045;50.042;14.432;2023-05-07T04:56:42;98610.00;;;12.46;60.84
78717;BME280;68045;50.042;14.432;2023-05-07T05:00:44;98615.53;;;12.44;60.15
78717;BME280;68045;50.042;14.432;2023-05-07T05:04:45;98628.31;;;12.24;60.58
78717;BME280;68045;50.042;14.432;2023-05-07T05:08:46;98625.09;;;12.33;60.56
78717;BME280;68045;50.042;14.432;2023-05-07T05:12:47;98631.19;;;12.34;61.04
78717;BME280;68045;50.042;14.432;2023-05-07T05:16:49;98637.19;;;12.41;61.44
78717;BME280;68045;50.042;14.432;2023-05-07T05:20:51;98636.22;;;12.47;59.60
78717;BME280;68045;50.042;14.432;2023-05-07T05:24:52;98640.84;;;12.52;60.12
78717;BME280;68045;50.042;14.432;2023-05-07T05:28:53;98643.13;;;12.60;59.37
78717;BME280;68045;50.042;14.432;2023-05-07T05:32:57;98646.31;;;12.74;59.59
78717;BME280;68045;50.042;14.432;2023-05-07T05:36:59;98637.66;;;12.78;58.94
78717;BME280;68045;50.042;14.432;2023-05-07T05:41:00;98650.13;;;12.78;58.95
78717;BME280;68045;50.042;14.432;2023-05-07T05:45:01;98649.25;;;12.89;58.00
78717;BME280;68045;50.042;14.432;2023-05-07T05:49:04;98655.00;;;12.98;57.98
78717;BME280;68045;50.042;14.432;2023-05-07T05:53:05;98650.84;;;13.02;58.55
78717;BME280;68045;50.042;14.432;2023-05-07T05:57:08;98648.84;;;13.21;57.33
78717;BME280;68045;50.042;14.432;2023-05-07T06:01:09;98656.78;;;13.21;57.16
78717;BME280;68045;50.042;14.432;2023-05-07T06:05:12;98653.38;;;13.37;57.07
78717;BME280;68045;50.042;14.432;2023-05-07T06:09:14;98653.16;;;13.55;55.90
78717;BME280;68045;50.042;14.432;2023-05-07T06:13:17;98655.31;;;13.58;56.00
78717;BME280;68045;50.042;14.432;2023-05-07T06:17:19;98666.59;;;13.65;56.15
78717;BME280;68045;50.042;14.432;2023-05-07T06:21:20;98677.75;;;13.51;54.90
78717;BME280;68045;50.042;14.432;2023-05-07T06:25:20;98672.53;;;13.56;55.43
78717;BME280;68045;50.042;14.432;2023-05-07T06:29:21;98687.09;;;13.70;55.18
78717;BME280;68045;50.042;14.432;2023-05-07T06:33:22;98697.72;;;13.70;55.23
78717;BME280;68045;50.042;14.432;2023-05-07T06:37:24;98690.56;;;13.70;55.26
78717;BME280;68045;50.042;14.432;2023-05-07T06:41:32;98697.56;;;13.77;55.50
78717;BME280;68045;50.042;14.432;2023-05-07T06:45:40;98699.84;;;13.56;55.58
78717;BME280;68045;50.042;14.432;2023-05-07T06:49:43;98708.81;;;13.38;56.18
78717;BME280;68045;50.042;14.432;2023-05-07T06:53:48;98704.31;;;13.39;55.76
78717;BME280;68045;50.042;14.432;2023-05-07T06:57:49;98712.91;;;13.46;55.80
78717;BME280;68045;50.042;14.432;2023-05-07T07:01:51;98713.59;;;13.53;55.81
78717;BME280;68045;50.042;14.432;2023-05-07T07:05:54;98715.88;;;13.61;55.58
78717;BME280;68045;50.042;14.432;2023-05-07T07:09:55;98719.50;;;13.72;55.62
78717;BME280;68045;50.042;14.432;2023-05-07T07:13:56;98720.19;;;13.96;54.94
78717;BME280;68045;50.042;14.432;2023-05-07T07:17:57;98721.13;;;14.07;54.71
78717;BME280;68045;50.042;14.432;2023-05-07T07:21:59;98725.00;;;14.16;54.07
78717;BME280;68045;50.042;14.432;2023-05-07T07:26:01;98717.81;;;14.16;54.36
78717;BME280;68045;50.042;14.432;2023-05-07T07:30:03;98728.06;;;14.24;53.84
78717;BME280;68045;50.042;14.432;2023-05-07T07:34:07;98728.22;;;14.18;54.10
78717;BME280;68045;50.042;14.432;2023-05-07T07:38:08;98723.41;;;13.98;54.12
78717;BME280;68045;50.042;14.432;2023-05-07T07:42:09;98724.13;;;14.10;53.91
78717;BME280;68045;50.042;14.432;2023-05-07T07:46:11;98731.94;;;14.17;53.82
78717;BME280;68045;50.042;14.432;2023-05-07T07:50:12;98734.19;;;14.25;53.86
78717;BME280;68045;50.042;14.432;2023-05-07T07:54:13;98735.94;;;14.36;52.73
78717;BME280;68045;50.042;14.432;2023-05-07T07:58:15;98741.50;;;14.35;51.97
78717;BME280;68045;50.042;14.432;2023-05-07T08:02:17;98747.84;;;14.34;51.98
78717;BME280;68045;50.042;14.432;2023-05-07T08:06:18;98758.97;;;14.47;52.00
78717;BME280;68045;50.042;14.432;2023-05-07T08:10:20;98755.97;;;14.10;52.62
78717;BME280;68045;50.042;14.432;2023-05-07T08:14:28;98752.75;;;14.08;53.16
78717;BME280;68045;50.042;14.432;2023-05-07T08:18:29;98752.31;;;13.83;53.65
78717;BME280;68045;50.042;14.432;2023-05-07T08:22:32;98753.47;;;14.04;53.09
78717;BME280;68045;50.042;14.432;2023-05-07T08:26:33;98756.88;;;14.33;52.15
78717;BME280;68045;50.042;14.432;2023-05-07T08:30:34;98761.28;;;14.44;52.48
78717;BME280;68045;50.042;14.432;2023-05-07T08:34:35;98769.41;;;14.71;51.85
78717;BME280;68045;50.042;14.432;2023-05-07T08:38:39;98767.31;;;14.39;52.19
78717;BME280;68045;50.042;14.432;2023-05-07T08:42:48;98772.06;;;14.37;52.09
78717;BME280;68045;50.042;14.432;2023-05-07T08:46:51;98768.28;;;14.33;52.43
78717;BME280;68045;50.042;14.432;2023-05-07T08:50:55;98772.94;;;14.43;53.02
78717;BME280;68045;50.042;14.432;2023-05-07T08:54:57;98774.66;;;14.66;52.31
78717;BME280;68045;50.042;14.432;2023-05-07T08:58:59;98782.44;;;14.72;51.86
78717;BME280;68045;50.042;14.432;2023-05-07T09:03:02;98786.38;;;14.87;51.35
78717;BME280;68045;50.042;14.432;2023-05-07T09:07:04;98775.47;;;15.05;50.83
78717;BME280;68045;50.042;14.432;2023-05-07T09:11:08;98780.66;;;15.82;49.54
78717;BME280;68045;50.042;14.432;2023-05-07T09:15:09;98775.56;;;16.40;47.81
78717;BME280;68045;50.042;14.432;2023-05-07T09:19:10;98775.91;;;16.91;46.80
78717;BME280;68045;50.042;14.432;2023-05-07T09:23:16;98778.59;;;16.91;46.01
78717;BME280;68045;50.042;14.432;2023-05-07T09:27:19;98787.63;;;16.85;46.08
78717;BME280;68045;50.042;14.432;2023-05-07T09:31:20;98787.66;;;16.53;46.23
78717;BME280;68045;50.042;14.432;2023-05-07T09:35:21;98790.53;;;16.46;46.60
78717;BME280;68045;50.042;14.432;2023-05-07T09:39:43;98788.69;;;16.14;47.47
78717;BME280;68045;50.042;14.432;2023-05-07T09:43:46;98788.50;;;15.99;48.17
78717;BME280;68045;50.042;14.432;2023-05-07T09:47:57;98788.22;;;15.96;48.37
78717;BME280;68045;50.042;14.432;2023-05-07T09:52:01;98802.16;;;16.03;48.77
78717;BME280;68045;50.042;14.432;2023-05-07T09:56:06;98791.94;;;15.95;47.31
78717;BME280;68045;50.042;14.432;2023-05-07T10:00:07;98782.34;;;15.67;47.99
78717;BME280;68045;50.042;14.432;2023-05-07T10:04:22;98787.88;;;15.43;49.48
78717;BME280;68045;50.042;14.432;2023-05-07T10:08:24;98790.25;;;15.18;49.97
78717;BME280;68045;50.042;14.432;2023-05-07T10:12:29;98791.16;;;15.28;49.81
78717;BME280;68045;50.042;14.432;2023-05-07T10:16:36;98787.84;;;15.16;49.81
78717;BME280;68045;50.042;14.432;2023-05-07T10:20:42;98795.25;;;15.14;50.31
78717;BME280;68045;50.042;14.432;2023-05-07T10:24:46;98796.47;;;15.06;50.47
78717;BME280;68045;50.042;14.432;2023-05-07T10:29:15;98792.59;;;15.36;49.42
78717;BME280;68045;50.042;14.432;2023-05-07T10:33:16;98783.97;;;15.68;48.70
78717;BME280;68045;50.042;14.432;2023-05-07T10:37:22;98773.19;;;16.43;47.43
78717;BME280;68045;50.042;14.432;2023-05-07T10:41:24;98766.16;;;17.79;44.71
78717;BME280;68045;50.042;14.432;2023-05-07T10:45:26;98765.38;;;19.51;39.98
78717;BME280;68045;50.042;14.432;2023-05-07T10:49:29;98769.50;;;20.55;37.74
78717;BME280;68045;50.042;14.432;2023-05-07T10:53:35;98773.53;;;20.19;37.63
78717;BME280;68045;50.042;14.432;2023-05-07T10:57:42;98771.78;;;19.55;38.95
78717;BME280;68045;50.042;14.432;2023-05-07T11:01:55;98768.75;;;19.07;40.82
78717;BME280;68045;50.042;14.432;2023-05-07T11:06:15;98770.69;;;18.81;41.19
78717;BME280;68045;50.042;14.432;2023-05-07T11:10:55;98774.59;;;19.24;40.01
78717;BME280;68045;50.042;14.432;2023-05-07T11:15:37;98778.41;;;19.03;40.16
78717;BME280;68045;50.042;14.432;2023-05-07T11:19:53;98782.75;;;18.12;42.17
78717;BME280;68045;50.042;14.432;2023-05-07T11:24:21;98772.81;;;17.72;43.47
78717;BME280;68045;50.042;14.432;2023-05-07T11:28:40;98784.13;;;17.32;42.87
78717;BME280;68045;50.042;14.432;2023-05-07T11:32:42;98779.94;;;16.93;44.37
78717;BME280;68045;50.042;14.432;2023-05-07T11:36:45;98772.81;;;17.09;44.86
78717;BME280;68045;50.042;14.432;2023-05-07T11:40:54;98779.84;;;17.30;45.16
78717;BME280;68045;50.042;14.432;2023-05-07T11:44:56;98783.16;;;17.58;44.75
78717;BME280;68045;50.042;14.432;2023-05-07T11:48:57;98775.78;;;17.86;44.38
78717;BME280;68045;50.042;14.432;2023-05-07T11:52:58;98773.28;;;17.69;45.30
78717;BME280;68045;50.042;14.432;2023-05-07T11:56:58;98782.34;;;17.57;45.43
78717;BME280;68045;50.042;14.432;2023-05-07T12:01:00;98780.97;;;17.45;45.31
78717;BME280;68045;50.042;14.432;2023-05-07T12:05:01;98777.84;;;17.63;44.86
78717;BME280;68045;50.042;14.432;2023-05-07T12:09:03;98779.78;;;18.03;44.28
78717;BME280;68045;50.042;14.432;2023-05-07T12:13:20;98772.03;;;17.81;44.60
78717;BME280;68045;50.042;14.432;2023-05-07T12:17:21;98786.91;;;17.67;44.20
78717;BME280;68045;50.042;14.432;2023-05-07T12:21:23;98790.38;;;17.57;44.34
78717;BME280;68045;50.042;14.432;2023-05-07T12:25:24;98789.94;;;17.13;46.12
78717;BME280;68045;50.042;14.432;2023-05-07T12:29:25;98801.59;;;16.65;47.53
78717;BME280;68045;50.042;14.432;2023-05-07T12:33:27;98800.72;;;16.91;46.36
78717;BME280;68045;50.042;14.432;2023-05-07T12:37:29;98812.94;;;16.82;46.44
78717;BME280;68045;50.042;14.432;2023-05-07T12:41:29;98795.59;;;16.80;46.52
78717;BME280;68045;50.042;14.432;2023-05-07T12:45:30;98793.41;;;17.19;44.90
78717;BME280;68045;50.042;14.432;2023-05-07T12:49:34;98800.31;;;17.72;44.05
78717;BME280;68045;50.042;14.432;2023-05-07T12:53:41;98790.22;;;18.10;43.31
78717;BME280;68045;50.042;14.432;2023-05-07T12:57:47;98794.00;;;18.19;42.52
78717;BME280;68045;50.042;14.432;2023-05-07T13:01:49;98788.63;;;18.09;42.51
78717;BME280;68045;50.042;14.432;2023-05-07T13:05:51;98787.03;;;17.98;42.54
78717;BME280;68045;50.042;14.432;2023-05-07T13:09:52;98785.88;;;17.73;43.06
78717;BME280;68045;50.042;14.432;2023-05-07T13:13:53;98785.09;;;17.73;43.20
78717;BME280;68045;50.042;14.432;2023-05-07T13:17:54;98785.94;;;17.94;42.95
78717;BME280;68045;50.042;14.432;2023-05-07T13:21:55;98777.41;;;18.22;42.53
78717;BME280;68045;50.042;14.432;2023-05-07T13:25:56;98782.50;;;18.54;41.92
78717;BME280;68045;50.042;14.432;2023-05-07T13:29:58;98783.84;;;18.47;41.10
78717;BME280;68045;50.042;14.432;2023-05-07T13:33:59;98787.59;;;18.25;41.34
78717;BME280;68045;50.042;14.432;2023-05-07T13:38:00;98786.63;;;17.69;42.58
78717;BME280;68045;50.042;14.432;2023-05-07T13:42:01;98787.22;;;17.71;42.55
78717;BME280;68045;50.042;14.432;2023-05-07T13:46:03;98779.50;;;17.90;41.77
78717;BME280;68045;50.042;14.432;2023-05-07T13:50:04;98778.44;;;17.86;41.95
78717;BME280;68045;50.042;14.432;2023-05-07T13:54:05;98775.25;;;17.94;41.08
78717;BME280;68045;50.042;14.432;2023-05-07T13:58:06;98777.13;;;18.08;40.89
78717;BME280;68045;50.042;14.432;2023-05-07T14:02:07;98763.78;;;18.14;41.15
78717;BME280;68045;50.042;14.432;2023-05-07T14:06:09;98764.84;;;18.18;40.35
78717;BME280;68045;50.042;14.432;2023-05-07T14:10:10;98765.66;;;18.13;40.75
78717;BME280;68045;50.042;14.432;2023-05-07T14:14:11;98765.09;;;18.01;40.54
78717;BME280;68045;50.042;14.432;2023-05-07T14:18:12;98773.63;;;17.88;41.09
78717;BME280;68045;50.042;14.432;2023-05-07T14:22:13;98776.25;;;17.62;41.16
78717;BME280;68045;50.042;14.432;2023-05-07T14:26:15;98774.13;;;17.74;41.26
78717;BME280;68045;50.042;14.432;2023-05-07T14:30:16;98773.75;;;17.40;42.51
78717;BME280;68045;50.042;14.432;2023-05-07T14:34:17;98780.09;;;16.77;43.94
78717;BME280;68045;50.042;14.432;2023-05-07T14:38:18;98793.94;;;16.36;45.01
78717;BME280;68045;50.042;14.432;2023-05-07T14:42:19;98786.16;;;16.30;45.14
78717;BME280;68045;50.042;14.432;2023-05-07T14:46:21;98787.81;;;16.09;44.37
78717;BME280;68045;50.042;14.432;2023-05-07T14:50:23;98793.22;;;16.14;44.56
78717;BME280;68045;50.042;14.432;2023-05-07T14:54:24;98780.00;;;16.29;43.47
78717;BME280;68045;50.042;14.432;2023-05-07T14:58:25;98775.28;;;16.41;43.18
78717;BME280;68045;50.042;14.432;2023-05-07T15:02:26;98769.25;;;16.51;43.90
78717;BME280;68045;50.042;14.432;2023-05-07T15:06:34;98776.06;;;16.37;43.75
78717;BME280;68045;50.042;14.432;2023-05-07T15:10:36;98775.88;;;15.84;44.95
78717;BME280;68045;50.042;14.432;2023-05-07T15:14:41;98773.13;;;15.74;45.59
78717;BME280;68045;50.042;14.432;2023-05-07T15:18:42;98783.31;;;15.60;46.19
78717;BME280;68045;50.042;14.432;2023-05-07T15:22:43;98780.41;;;15.40;45.54
78717;BME280;68045;50.042;14.432;2023-05-07T15:26:44;98780.91;;;15.15;46.47
78717;BME280;68045;50.042;14.432;2023-05-07T15:30:45;98788.28;;;15.30;46.73
78717;BME280;68045;50.042;14.432;2023-05-07T15:34:46;98785.56;;;14.86;47.38
78717;BME280;68045;50.042;14.432;2023-05-07T15:38:48;98780.03;;;14.88;47.95
78717;BME280;68045;50.042;14.432;2023-05-07T15:42:48;98780.28;;;15.08;47.70
78717;BME280;68045;50.042;14.432;2023-05-07T15:46:50;98780.06;;;14.93;47.41
78717;BME280;68045;50.042;14.432;2023-05-07T15:50:51;98801.00;;;14.67;48.82
78717;BME280;68045;50.042;14.432;2023-05-07T15:54:52;98805.25;;;14.68;49.13
78717;BME280;68045;50.042;14.432;2023-05-07T15:58:52;98797.00;;;14.36;49.36
78717;BME280;68045;50.042;14.432;2023-05-07T16:02:53;98803.75;;;14.10;49.97
78717;BME280;68045;50.042;14.432;2023-05-07T16:06:55;98797.41;;;14.11;49.92
78717;BME280;68045;50.042;14.432;2023-05-07T16:10:56;98799.00;;;13.95;49.70
78717;BME280;68045;50.042;14.432;2023-05-07T16:14:57;98798.66;;;13.92;50.19
78717;BME280;68045;50.042;14.432;2023-05-07T16:18:58;98786.09;;;13.87;50.93
78717;BME280;68045;50.042;14.432;2023-05-07T16:22:59;98796.50;;;13.89;50.64
78717;BME280;68045;50.042;14.432;2023-05-07T16:26:59;98797.44;;;13.83;50.44
78717;BME280;68045;50.042;14.432;2023-05-07T16:31:00;98796.56;;;13.65;51.30
78717;BME280;68045;50.042;14.432;2023-05-07T16:35:02;98791.78;;;13.51;51.43
78717;BME280;68045;50.042;14.432;2023-05-07T16:39:03;98796.97;;;13.45;51.91
78717;BME280;68045;50.042;14.432;2023-05-07T16:43:04;98818.09;;;13.17;52.31
78717;BME280;68045;50.042;14.432;2023-05-07T16:47:06;98815.81;;;13.09;52.30
78717;BME280;68045;50.042;14.432;2023-05-07T16:51:07;98815.59;;;12.99;52.63
78717;BME280;68045;50.042;14.432;2023-05-07T16:55:09;98825.63;;;12.85;53.99
78717;BME280;68045;50.042;14.432;2023-05-07T16:59:10;98820.69;;;12.77;53.61
78717;BME280;68045;50.042;14.432;2023-05-07T17:03:11;98821.25;;;12.79;53.58
78717;BME280;68045;50.042;14.432;2023-05-07T17:07:12;98820.91;;;12.63;54.05
78717;BME280;68045;50.042;14.432;2023-05-07T17:11:14;98813.38;;;12.60;53.73
78717;BME280;68045;50.042;14.432;2023-05-07T17:15:15;98833.31;;;12.51;54.16
78717;BME280;68045;50.042;14.432;2023-05-07T17:19:16;98839.66;;;12.50;54.71
78717;BME280;68045;50.042;14.432;2023-05-07T17:23:17;98853.31;;;12.35;54.57
78717;BME280;68045;50.042;14.432;2023-05-07T17:27:18;98846.38;;;12.23;55.13
78717;BME280;68045;50.042;14.432;2023-05-07T17:31:20;98855.47;;;11.97;56.22
78717;BME280;68045;50.042;14.432;2023-05-07T17:35:21;98866.88;;;11.79;56.77
78717;BME280;68045;50.042;14.432;2023-05-07T17:39:22;98873.13;;;11.66;56.69
78717;BME280;68045;50.042;14.432;2023-05-07T17:43:23;98876.38;;;11.50;57.48
78717;BME280;68045;50.042;14.432;2023-05-07T17:47:24;98877.84;;;11.46;57.08
78717;BME280;68045;50.042;14.432;2023-05-07T17:51:25;98886.78;;;11.45;57.20
78717;BME280;68045;50.042;14.432;2023-05-07T17:55:27;98893.91;;;11.26;58.16
78717;BME280;68045;50.042;14.432;2023-05-07T17:59:30;98899.47;;;11.18;58.17
78717;BME280;68045;50.042;14.432;2023-05-07T18:03:31;98911.41;;;11.02;57.98
78717;BME280;68045;50.042;14.432;2023-05-07T18:07:34;98926.59;;;10.82;58.12
78717;BME280;68045;50.042;14.432;2023-05-07T18:11:35;98923.91;;;10.57;59.00
78717;BME280;68045;50.042;14.432;2023-05-07T18:15:37;98916.91;;;10.44;59.14
78717;BME280;68045;50.042;14.432;2023-05-07T18:19:38;98914.72;;;10.34;59.42
78717;BME280;68045;50.042;14.432;2023-05-07T18:23:39;98905.66;;;10.24;59.99
78717;BME280;68045;50.042;14.432;2023-05-07T18:27:40;98929.81;;;10.14;60.54
78717;BME280;68045;50.042;14.432;2023-05-07T18:31:41;98945.66;;;10.07;61.11
78717;BME280;68045;50.042;14.432;2023-05-07T18:35:41;98949.97;;;10.02;61.36
78717;BME280;68045;50.042;14.432;2023-05-07T18:39:42;98949.41;;;9.86;61.62
78717;BME280;68045;50.042;14.432;2023-05-07T18:43:43;98953.72;;;9.74;62.37
78717;BME280;68045;50.042;14.432;2023-05-07T18:47:44;98963.03;;;9.70;62.31
78717;BME280;68045;50.042;14.432;2023-05-07T18:51:45;98963.50;;;9.60;62.04
78717;BME280;68045;50.042;14.432;2023-05-07T18:55:50;98979.53;;;9.52;62.53
78717;BME280;68045;50.042;14.432;2023-05-07T18:59:52;98969.81;;;9.40;63.20
78717;BME280;68045;50.042;14.432;2023-05-07T19:03:54;98969.22;;;9.38;63.07
78717;BME280;68045;50.042;14.432;2023-05-07T19:07:55;98979.31;;;9.34;63.28
78717;BME280;68045;50.042;14.432;2023-05-07T19:11:57;98984.00;;;9.25;63.23
78717;BME280;68045;50.042;14.432;2023-05-07T19:15:58;98982.19;;;9.19;63.63
78717;BME280;68045;50.042;14.432;2023-05-07T19:19:59;98988.47;;;9.12;63.61
78717;BME280;68045;50.042;14.432;2023-05-07T19:23:59;98990.28;;;9.04;63.74
78717;BME280;68045;50.042;14.432;2023-05-07T19:28:00;98997.97;;;8.99;63.65
78717;BME280;68045;50.042;14.432;2023-05-07T19:32:01;99004.66;;;8.89;64.25
78717;BME280;68045;50.042;14.432;2023-05-07T19:36:02;99011.88;;;8.73;64.35
78717;BME280;68045;50.042;14.432;2023-05-07T19:40:03;99003.38;;;8.65;64.47
78717;BME280;68045;50.042;14.432;2023-05-07T19:44:06;99005.19;;;8.58;64.59
78717;BME280;68045;50.042;14.432;2023-05-07T19:48:07;98999.28;;;8.49;64.76
78717;BME280;68045;50.042;14.432;2023-05-07T19:52:08;99017.91;;;8.47;64.88
78717;BME280;68045;50.042;14.432;2023-05-07T19:56:09;99020.28;;;8.36;64.81
78717;BME280;68045;50.042;14.432;2023-05-07T20:00:11;99014.56;;;8.25;64.79
78717;BME280;68045;50.042;14.432;2023-05-07T20:04:15;99021.81;;;8.23;64.66
78717;BME280;68045;50.042;14.432;2023-05-07T20:08:16;99018.97;;;8.18;64.79
78717;BME280;68045;50.042;14.432;2023-05-07T20:12:17;99013.50;;;8.13;64.44
78717;BME280;68045;50.042;14.432;2023-05-07T20:16:18;99021.59;;;8.12;65.08
78717;BME280;68045;50.042;14.432;2023-05-07T20:20:19;99016.50;;;8.10;64.71
78717;BME280;68045;50.042;14.432;2023-05-07T20:24:20;99024.19;;;8.05;65.11
78717;BME280;68045;50.042;14.432;2023-05-07T20:28:21;99034.06;;;8.03;65.15
78717;BME280;68045;50.042;14.432;2023-05-07T20:32:22;99048.59;;;7.99;64.65
78717;BME280;68045;50.042;14.432;2023-05-07T20:36:23;99051.00;;;7.94;65.11
78717;BME280;68045;50.042;14.432;2023-05-07T20:40:26;99052.44;;;7.96;65.00
78717;BME280;68045;50.042;14.432;2023-05-07T20:44:27;99059.28;;;7.91;65.19
78717;BME280;68045;50.042;14.432;2023-05-07T20:48:30;99054.59;;;7.86;65.13
78717;BME280;68045;50.042;14.432;2023-05-07T20:52:30;99059.03;;;7.86;65.28
78717;BME280;68045;50.042;14.432;2023-05-07T20:56:31;99059.19;;;7.78;65.85
78717;BME280;68045;50.042;14.432;2023-05-07T21:00:33;99063.19;;;7.74;66.34
78717;BME280;68045;50.042;14.432;2023-05-07T21:04:34;99067.28;;;7.76;66.32
78717;BME280;68045;50.042;14.432;2023-05-07T21:08:35;99078.75;;;7.68;66.43